Time,TemperatureF,DewpointF,PressureIn,WindDirection,WindDirectionDegrees,WindSpeedMPH,WindSpeedGustMPH,Humidity,HourlyPrecipIn,Conditions,Clouds,dailyrainin,SoftwareType,DateUTC
2013-01-19 00:05:00,38.9,9.3,30.42,South,187,2.0,3.0,29,0.00,,,0.00,Wunderground v.1.15,2013-01-19 07:05:00,
2013-01-19 00:12:00,38.4,9.6,30.42,SSW,211,2.0,3.0,30,0.00,,,0.00,Wunderground v.1.15,2013-01-19 07:12:00,
2013-01-19 00:17:00,37.9,9.2,30.42,SSW,199,2.0,3.0,30,0.00,,,0.00,Wunderground v.1.15,2013-01-19 07:17:00,
2013-01-19 00:23:00,38.1,10.1,30.42,SW,229,1.0,3.0,31,0.00,,,0.00,Wunderground v.1.15,2013-01-19 07:23:00,
2013-01-19 00:30:00,38.7,9.9,30.42,SSW,204,1.0,1.0,30,0.00,,,0.00,Wunderground v.1.15,2013-01-19 07:30:00,
2013-01-19 00:35:00,39.1,9.5,30.42,SW,231,0.0,3.0,29,0.00,,,0.00,Wunderground v.1.15,2013-01-19 07:35:00,
2013-01-19 00:41:00,38.8,9.2,30.42,SW,218,0.0,3.0,29,0.00,,,0.00,Wunderground v.1.15,2013-01-19 07:41:00,
2013-01-19 00:47:00,38.1,10.1,30.42,SW,233,0.0,3.0,31,0.00,,,0.00,Wunderground v.1.15,2013-01-19 07:47:00,
2013-01-19 00:53:00,37.9,10.6,30.42,SSW,210,0.0,3.0,32,0.00,,,0.00,Wunderground v.1.15,2013-01-19 07:53:00,
2013-01-19 01:00:00,37.4,10.9,30.43,SSW,201,1.0,3.0,33,0.00,,,0.00,Wunderground v.1.15,2013-01-19 08:00:00,
2013-01-19 01:05:00,37.5,11.0,30.43,SSW,195,1.0,3.0,33,0.00,,,0.00,Wunderground v.1.15,2013-01-19 08:05:00,
2013-01-19 01:12:00,37.4,11.5,30.42,SSW,198,1.0,3.0,34,0.00,,,0.00,Wunderground v.1.15,2013-01-19 08:12:00,
2013-01-19 01:17:00,36.9,11.8,30.42,SSW,200,2.0,3.0,35,0.00,,,0.00,Wunderground v.1.15,2013-01-19 08:17:00,
2013-01-19 01:23:00,36.9,11.8,30.43,SW,233,1.0,3.0,35,0.00,,,0.00,Wunderground v.1.15,2013-01-19 08:23:00,
2013-01-19 01:30:00,37.2,12.0,30.43,South,188,0.0,3.0,35,0.00,,,0.00,Wunderground v.1.15,2013-01-19 08:30:00,
2013-01-19 01:35:00,36.9,11.8,30.43,SSW,197,1.0,3.0,35,0.00,,,0.00,Wunderground v.1.15,2013-01-19 08:35:00,
2013-01-19 01:41:00,36.6,12.1,30.42,SSW,204,1.0,3.0,36,0.00,,,0.00,Wunderground v.1.15,2013-01-19 08:41:00,
2013-01-19 01:48:00,36.7,12.8,30.43,SW,231,1.0,3.0,37,0.00,,,0.00,Wunderground v.1.15,2013-01-19 08:48:00,
2013-01-19 01:53:00,37.2,12.7,30.42,South,191,1.0,3.0,36,0.00,,,0.00,Wunderground v.1.15,2013-01-19 08:53:00,
2013-01-19 01:59:00,37.5,12.9,30.42,SW,219,1.0,1.0,36,0.00,,,0.00,Wunderground v.1.15,2013-01-19 08:59:00,
2013-01-19 02:06:00,37.6,12.4,30.42,SSW,204,1.0,3.0,35,0.00,,,0.00,Wunderground v.1.15,2013-01-19 09:06:00,
2013-01-19 02:11:00,37.5,12.9,30.43,SSW,201,1.0,3.0,36,0.00,,,0.00,Wunderground v.1.15,2013-01-19 09:11:00,
2013-01-19 02:17:00,36.9,13.0,30.43,SW,219,1.0,3.0,37,0.00,,,0.00,Wunderground v.1.15,2013-01-19 09:17:00,
2013-01-19 02:24:00,36.1,12.9,30.42,SSW,211,1.0,3.0,38,0.00,,,0.00,Wunderground v.1.15,2013-01-19 09:24:00,
2013-01-19 02:29:00,35.3,13.3,30.42,SSW,210,3.0,3.0,40,0.00,,,0.00,Wunderground v.1.15,2013-01-19 09:29:00,
2013-01-19 02:35:00,34.9,13.0,30.42,SSE,167,2.0,3.0,40,0.00,,,0.00,Wunderground v.1.15,2013-01-19 09:35:00,
2013-01-19 02:41:00,34.8,13.5,30.42,SSW,193,2.0,3.0,41,0.00,,,0.00,Wunderground v.1.15,2013-01-19 09:41:00,
2013-01-19 02:48:00,34.7,13.4,30.42,SW,228,2.0,3.0,41,0.00,,,0.00,Wunderground v.1.15,2013-01-19 09:48:00,
2013-01-19 02:54:00,35.5,13.5,30.42,South,176,1.0,3.0,40,0.00,,,0.00,Wunderground v.1.15,2013-01-19 09:54:00,
2013-01-19 02:59:00,35.8,13.2,30.42,SSW,207,1.0,3.0,39,0.00,,,0.00,Wunderground v.1.15,2013-01-19 09:59:00,
2013-01-19 03:05:00,35.2,13.3,30.42,SSW,202,2.0,3.0,40,0.00,,,0.00,Wunderground v.1.15,2013-01-19 10:05:00,
2013-01-19 03:11:00,35.5,13.5,30.42,SSW,203,3.0,3.0,40,0.00,,,0.00,Wunderground v.1.15,2013-01-19 10:11:00,
2013-01-19 03:18:00,35.3,13.3,30.42,SW,215,2.0,3.0,40,0.00,,,0.00,Wunderground v.1.15,2013-01-19 10:18:00,
2013-01-19 03:24:00,35.6,13.6,30.42,South,186,2.0,4.0,40,0.00,,,0.00,Wunderground v.1.15,2013-01-19 10:24:00,
2013-01-19 03:30:00,35.6,13.6,30.42,SSW,198,2.0,2.0,40,0.00,,,0.00,Wunderground v.1.15,2013-01-19 10:30:00,
2013-01-19 03:35:00,35.6,14.2,30.42,South,186,2.0,4.0,41,0.00,,,0.00,Wunderground v.1.15,2013-01-19 10:35:00,
2013-01-19 03:42:00,35.3,14.5,30.42,SW,217,3.0,4.0,42,0.00,,,0.00,Wunderground v.1.15,2013-01-19 10:42:00,
2013-01-19 03:47:00,35.1,14.3,30.42,SSW,201,2.0,4.0,42,0.00,,,0.00,Wunderground v.1.15,2013-01-19 10:47:00,
2013-01-19 03:54:00,34.8,14.0,30.42,SSW,201,1.0,3.0,42,0.00,,,0.00,Wunderground v.1.15,2013-01-19 10:54:00,
2013-01-19 03:59:00,35.0,14.2,30.42,SSW,207,1.0,1.0,42,0.00,,,0.00,Wunderground v.1.15,2013-01-19 10:59:00,
2013-01-19 04:05:00,35.0,14.7,30.42,SSW,211,2.0,3.0,43,0.00,,,0.00,Wunderground v.1.15,2013-01-19 11:05:00,
2013-01-19 04:11:00,35.0,14.7,30.43,SSW,193,1.0,3.0,43,0.00,,,0.00,Wunderground v.1.15,2013-01-19 11:11:00,
2013-01-19 05:49:00,35.2,17.0,30.44,SSW,206,1.0,3.0,47,0.00,,,0.00,Wunderground v.1.15,2013-01-19 12:49:00,
2013-01-19 05:51:00,35.0,17.3,30.44,SSW,195,2.0,3.0,48,0.00,,,0.00,Wunderground v.1.15,2013-01-19 12:51:00,
2013-01-19 05:53:00,34.7,17.0,30.44,SSW,205,2.0,3.0,48,0.00,,,0.00,Wunderground v.1.15,2013-01-19 12:53:00,
2013-01-19 06:00:00,34.7,17.0,30.44,South,190,2.0,3.0,48,0.00,,,0.00,Wunderground v.1.15,2013-01-19 13:00:00,
2013-01-19 06:01:00,34.8,17.1,30.44,SW,233,3.0,4.0,48,0.00,,,0.00,Wunderground v.1.15,2013-01-19 13:01:00,
2013-01-19 06:08:00,34.9,17.2,30.44,SSW,198,2.0,4.0,48,0.00,,,0.00,Wunderground v.1.15,2013-01-19 13:08:00,
2013-01-19 06:13:00,35.4,17.1,30.44,SSW,212,2.0,3.0,47,0.00,,,0.00,Wunderground v.1.15,2013-01-19 13:13:00,
2013-01-19 06:20:00,35.2,17.0,30.44,SSW,204,2.0,3.0,47,0.00,,,0.00,Wunderground v.1.15,2013-01-19 13:20:00,
2013-01-19 06:25:00,34.9,16.7,30.44,SW,214,2.0,3.0,47,0.00,,,0.00,Wunderground v.1.15,2013-01-19 13:25:00,
2013-01-19 06:31:00,34.4,16.7,30.44,South,174,2.0,3.0,48,0.00,,,0.00,Wunderground v.1.15,2013-01-19 13:31:00,
2013-01-19 06:38:00,34.6,16.4,30.45,SW,214,2.0,3.0,47,0.00,,,0.00,Wunderground v.1.15,2013-01-19 13:38:00,
2013-01-19 06:43:00,35.1,16.4,30.45,South,174,1.0,3.0,46,0.00,,,0.00,Wunderground v.1.15,2013-01-19 13:43:00,
2013-01-19 06:49:00,35.6,16.8,30.45,SSW,197,1.0,3.0,46,0.00,,,0.00,Wunderground v.1.15,2013-01-19 13:49:00,
2013-01-19 06:56:00,35.4,16.1,30.45,SSW,202,2.0,3.0,45,0.00,,,0.00,Wunderground v.1.15,2013-01-19 13:56:00,
2013-01-19 07:01:00,35.0,16.3,30.45,SW,225,2.0,4.0,46,0.00,,,0.00,Wunderground v.1.15,2013-01-19 14:01:00,
2013-01-19 07:07:00,34.7,16.0,30.45,SSW,200,1.0,4.0,46,0.00,,,0.00,Wunderground v.1.15,2013-01-19 14:07:00,
2013-01-19 07:14:00,34.4,16.2,30.45,South,182,1.0,3.0,47,0.00,,,0.00,Wunderground v.1.15,2013-01-19 14:14:00,
2013-01-19 07:19:00,34.2,16.5,30.45,SW,225,1.0,1.0,48,0.00,,,0.00,Wunderground v.1.15,2013-01-19 14:19:00,
2013-01-19 07:25:00,34.8,16.6,30.45,SW,217,1.0,3.0,47,0.00,,,0.00,Wunderground v.1.15,2013-01-19 14:25:00,
2013-01-19 07:32:00,34.9,16.2,30.46,South,186,1.0,3.0,46,0.00,,,0.00,Wunderground v.1.15,2013-01-19 14:32:00,
2013-01-19 07:37:00,34.9,16.7,30.46,SSW,211,1.0,3.0,47,0.00,,,0.00,Wunderground v.1.15,2013-01-19 14:37:00,
2013-01-19 07:43:00,34.9,16.7,30.46,South,186,1.0,3.0,47,0.00,,,0.00,Wunderground v.1.15,2013-01-19 14:43:00,
2013-01-19 07:49:00,35.1,16.9,30.46,SSE,152,2.0,4.0,47,0.00,,,0.00,Wunderground v.1.15,2013-01-19 14:49:00,
2013-01-19 07:55:00,35.7,17.4,30.47,SSW,200,2.0,4.0,47,0.00,,,0.00,Wunderground v.1.15,2013-01-19 14:55:00,
2013-01-19 08:02:00,36.5,18.2,30.47,WSW,238,1.0,3.0,47,0.00,,,0.00,Wunderground v.1.15,2013-01-19 15:02:00,
2013-01-19 08:07:00,37.8,18.3,30.47,SSW,210,1.0,3.0,45,0.00,,,0.00,Wunderground v.1.15,2013-01-19 15:07:00,
2013-01-19 08:13:00,39.4,19.3,30.47,SSW,212,1.0,3.0,44,0.00,,,0.00,Wunderground v.1.15,2013-01-19 15:13:00,
2013-01-19 08:20:00,40.9,19.5,30.47,SSW,208,0.0,3.0,42,0.00,,,0.00,Wunderground v.1.15,2013-01-19 15:20:00,
2013-01-19 08:25:00,42.0,20.0,30.48,SW,222,0.0,3.0,41,0.00,,,0.00,Wunderground v.1.15,2013-01-19 15:25:00,
2013-01-19 08:31:00,43.4,20.7,30.48,South,191,0.0,3.0,40,0.00,,,0.00,Wunderground v.1.15,2013-01-19 15:31:00,
2013-01-19 08:38:00,45.6,20.8,30.48,South,189,0.0,3.0,37,0.00,,,0.00,Wunderground v.1.15,2013-01-19 15:38:00,
2013-01-19 08:43:00,47.5,21.2,30.48,South,190,0.0,3.0,35,0.00,,,0.00,Wunderground v.1.15,2013-01-19 15:43:00,
2013-01-19 08:49:00,48.6,20.8,30.48,South,190,0.0,3.0,33,0.00,,,0.00,Wunderground v.1.15,2013-01-19 15:49:00,
2013-01-19 08:56:00,50.6,20.3,30.48,South,190,0.0,3.0,30,0.00,,,0.00,Wunderground v.1.15,2013-01-19 15:56:00,
2013-01-19 09:01:00,50.9,19.7,30.48,NE,41,0.0,3.0,29,0.00,,,0.00,Wunderground v.1.15,2013-01-19 16:01:00,
2013-01-19 09:07:00,51.1,19.1,30.48,ENE,58,0.0,3.0,28,0.00,,,0.00,Wunderground v.1.15,2013-01-19 16:07:00,
2013-01-19 09:14:00,51.5,19.4,30.48,ENE,58,0.0,3.0,28,0.00,,,0.00,Wunderground v.1.15,2013-01-19 16:14:00,
2013-01-19 09:19:00,51.9,18.9,30.49,ENE,62,0.0,3.0,27,0.00,,,0.00,Wunderground v.1.15,2013-01-19 16:19:00,
2013-01-19 09:25:00,52.0,18.1,30.49,NNE,28,1.0,3.0,26,0.00,,,0.00,Wunderground v.1.15,2013-01-19 16:25:00,
2013-01-19 09:32:00,52.0,18.1,30.49,NE,36,1.0,3.0,26,0.00,,,0.00,Wunderground v.1.15,2013-01-19 16:32:00,
2013-01-19 09:37:00,52.4,17.6,30.50,NE,51,0.0,3.0,25,0.00,,,0.00,Wunderground v.1.15,2013-01-19 16:37:00,
2013-01-19 09:43:00,52.6,17.7,30.50,NE,51,0.0,3.0,25,0.00,,,0.00,Wunderground v.1.15,2013-01-19 16:43:00,
2013-01-19 09:49:00,53.8,17.8,30.49,SSE,148,0.0,3.0,24,0.00,,,0.00,Wunderground v.1.15,2013-01-19 16:49:00,
2013-01-19 09:55:00,54.9,17.7,30.49,ESE,105,0.0,3.0,23,0.00,,,0.00,Wunderground v.1.15,2013-01-19 16:55:00,
2013-01-19 10:02:00,55.9,17.6,30.49,ESE,112,0.0,3.0,22,0.00,,,0.00,Wunderground v.1.15,2013-01-19 17:02:00,
2013-01-19 10:08:00,56.3,17.9,30.49,ESE,123,0.0,3.0,22,0.00,,,0.00,Wunderground v.1.15,2013-01-19 17:08:00,
2013-01-19 10:14:00,56.6,18.1,30.49,NE,56,0.0,3.0,22,0.00,,,0.00,Wunderground v.1.15,2013-01-19 17:14:00,
2013-01-19 10:20:00,56.5,17.0,30.49,SE,142,0.0,3.0,21,0.00,,,0.00,Wunderground v.1.15,2013-01-19 17:20:00,
2013-01-19 10:25:00,57.6,17.9,30.49,SSE,160,0.0,3.0,21,0.00,,,0.00,Wunderground v.1.15,2013-01-19 17:25:00,
2013-01-19 10:32:00,58.3,18.5,30.48,SE,134,0.0,3.0,21,0.00,,,0.00,Wunderground v.1.15,2013-01-19 17:32:00,
2013-01-19 10:37:00,59.4,18.3,30.48,East,90,0.0,3.0,20,0.00,,,0.00,Wunderground v.1.15,2013-01-19 17:37:00,
2013-01-19 10:43:00,60.0,16.3,30.48,ENE,77,1.0,3.0,18,0.00,,,0.00,Wunderground v.1.15,2013-01-19 17:43:00,
2013-01-19 10:50:00,60.7,16.9,30.48,East,94,1.0,1.0,18,0.00,,,0.00,Wunderground v.1.15,2013-01-19 17:50:00,
2013-01-19 10:56:00,60.7,16.9,30.48,ENE,64,1.0,3.0,18,0.00,,,0.00,Wunderground v.1.15,2013-01-19 17:56:00,
2013-01-19 11:04:00,60.8,17.0,30.47,NNE,29,1.0,4.0,18,0.00,,,0.00,Wunderground v.1.15,2013-01-19 18:04:00,
2013-01-19 11:09:00,60.5,16.7,30.47,NE,50,2.0,2.0,18,0.00,,,0.00,Wunderground v.1.15,2013-01-19 18:09:00,
2013-01-19 11:15:00,60.8,17.0,30.47,ENE,77,1.0,3.0,18,0.00,,,0.00,Wunderground v.1.15,2013-01-19 18:15:00,
2013-01-19 11:24:00,61.1,17.2,30.46,ENE,65,1.0,3.0,18,0.00,,,0.00,Wunderground v.1.15,2013-01-19 18:24:00,
2013-01-19 11:29:00,62.4,17.0,30.46,NE,44,1.0,1.0,17,0.00,,,0.00,Wunderground v.1.15,2013-01-19 18:29:00,
2013-01-19 11:35:00,62.9,17.4,30.46,ENE,68,0.0,3.0,17,0.00,,,0.00,Wunderground v.1.15,2013-01-19 18:35:00,
2013-01-19 11:42:00,62.5,17.0,30.45,NNE,25,1.0,4.0,17,0.00,,,0.00,Wunderground v.1.15,2013-01-19 18:42:00,
2013-01-19 11:47:00,62.8,17.3,30.45,NE,54,1.0,4.0,17,0.00,,,0.00,Wunderground v.1.15,2013-01-19 18:47:00,
2013-01-19 11:53:00,63.0,17.4,30.44,East,83,1.0,4.0,17,0.00,,,0.00,Wunderground v.1.15,2013-01-19 18:53:00,
2013-01-19 11:59:00,62.9,17.4,30.44,North,8,1.0,1.0,17,0.00,,,0.00,Wunderground v.1.15,2013-01-19 18:59:00,
2013-01-19 12:05:00,63.1,17.5,30.43,NE,51,1.0,3.0,17,0.00,,,0.00,Wunderground v.1.15,2013-01-19 19:05:00,
2013-01-19 12:12:00,64.2,17.0,30.43,NNE,27,1.0,3.0,16,0.00,,,0.00,Wunderground v.1.15,2013-01-19 19:12:00,
2013-01-19 12:18:00,64.5,17.3,30.42,NNE,13,1.0,3.0,16,0.00,,,0.00,Wunderground v.1.15,2013-01-19 19:18:00,
2013-01-19 12:23:00,64.5,17.3,30.42,NE,40,1.0,4.0,16,0.00,,,0.00,Wunderground v.1.15,2013-01-19 19:23:00,
2013-01-19 12:29:00,64.3,17.1,30.41,NE,56,2.0,5.0,16,0.00,,,0.00,Wunderground v.1.15,2013-01-19 19:29:00,
2013-01-19 12:36:00,64.8,16.0,30.41,ENE,62,1.0,5.0,15,0.00,,,0.00,Wunderground v.1.15,2013-01-19 19:36:00,
2013-01-19 12:41:00,65.7,16.7,30.41,NNE,30,1.0,2.0,15,0.00,,,0.00,Wunderground v.1.15,2013-01-19 19:41:00,
2013-01-19 12:47:00,66.4,15.7,30.40,ENE,75,1.0,3.0,14,0.00,,,0.00,Wunderground v.1.15,2013-01-19 19:47:00,
2013-01-19 12:54:00,65.8,16.8,30.40,NE,54,2.0,3.0,15,0.00,,,0.00,Wunderground v.1.15,2013-01-19 19:54:00,
2013-01-19 12:59:00,66.0,18.5,30.40,NE,34,1.0,1.0,16,0.00,,,0.00,Wunderground v.1.15,2013-01-19 19:59:00,
2013-01-19 13:06:00,66.1,18.5,30.39,NE,51,2.0,3.0,16,0.00,,,0.00,Wunderground v.1.15,2013-01-19 20:06:00,
2013-01-19 13:11:00,66.0,21.2,30.39,ESE,122,2.0,3.0,18,0.00,,,0.00,Wunderground v.1.15,2013-01-19 20:11:00,
2013-01-19 13:17:00,66.2,26.2,30.39,NE,37,1.0,3.0,22,0.00,,,0.00,Wunderground v.1.15,2013-01-19 20:17:00,
2013-01-19 13:24:00,66.2,22.7,30.38,NNE,18,1.0,4.0,19,0.00,,,0.00,Wunderground v.1.15,2013-01-19 20:24:00,
2013-01-19 13:29:00,66.8,24.4,30.38,East,81,2.0,2.0,20,0.00,,,0.00,Wunderground v.1.15,2013-01-19 20:29:00,
2013-01-19 13:36:00,66.9,23.3,30.37,North,357,1.0,5.0,19,0.00,,,0.00,Wunderground v.1.15,2013-01-19 20:36:00,
2013-01-19 13:41:00,67.1,23.4,30.37,ENE,65,2.0,3.0,19,0.00,,,0.00,Wunderground v.1.15,2013-01-19 20:41:00,
2013-01-19 13:47:00,67.4,23.7,30.37,NW,319,1.0,3.0,19,0.00,,,0.00,Wunderground v.1.15,2013-01-19 20:47:00,
2013-01-19 13:53:00,66.8,23.2,30.37,NE,41,2.0,5.0,19,0.00,,,0.00,Wunderground v.1.15,2013-01-19 20:53:00,
2013-01-19 13:59:00,67.5,23.7,30.37,ENE,61,2.0,2.0,19,0.00,,,0.00,Wunderground v.1.15,2013-01-19 20:59:00,
2013-01-19 14:05:00,68.9,23.6,30.36,SSE,149,2.0,3.0,18,0.00,,,0.00,Wunderground v.1.15,2013-01-19 21:05:00,
2013-01-19 14:12:00,69.2,23.9,30.36,SSE,149,2.0,5.0,18,0.00,,,0.00,Wunderground v.1.15,2013-01-19 21:12:00,
2013-01-19 14:20:00,67.7,23.9,30.36,West,262,1.0,3.0,19,0.00,,,0.00,Wunderground v.1.15,2013-01-19 21:20:00,
2013-01-19 14:25:00,67.5,23.7,30.36,NE,51,2.0,3.0,19,0.00,,,0.00,Wunderground v.1.15,2013-01-19 21:25:00,
2013-01-19 14:32:00,67.0,23.3,30.36,WSW,257,2.0,3.0,19,0.00,,,0.00,Wunderground v.1.15,2013-01-19 21:32:00,
2013-01-19 14:38:00,68.4,24.5,30.36,ENE,77,1.0,3.0,19,0.00,,,0.00,Wunderground v.1.15,2013-01-19 21:38:00,
2013-01-19 14:44:00,69.1,25.1,30.36,South,183,1.0,3.0,19,0.00,,,0.00,Wunderground v.1.15,2013-01-19 21:44:00,
2013-01-19 14:49:00,69.6,24.2,30.35,SSE,153,1.0,3.0,18,0.00,,,0.00,Wunderground v.1.15,2013-01-19 21:49:00,
2013-01-19 14:55:00,69.8,24.3,30.35,South,183,1.0,3.0,18,0.00,,,0.00,Wunderground v.1.15,2013-01-19 21:55:00,
2013-01-19 15:02:00,69.7,24.3,30.35,SE,143,1.0,3.0,18,0.00,,,0.00,Wunderground v.1.15,2013-01-19 22:02:00,
2013-01-19 15:09:00,69.1,23.8,30.35,NE,49,1.0,3.0,18,0.00,,,0.00,Wunderground v.1.15,2013-01-19 22:09:00,
2013-01-19 15:15:00,68.2,25.6,30.35,ENE,63,2.0,6.0,20,0.00,,,0.00,Wunderground v.1.15,2013-01-19 22:15:00,
2013-01-19 15:22:00,68.6,25.9,30.35,SE,135,2.0,3.0,20,0.00,,,0.00,Wunderground v.1.15,2013-01-19 22:22:00,
2013-01-19 15:27:00,68.1,25.5,30.35,ENE,60,2.0,3.0,20,0.00,,,0.00,Wunderground v.1.15,2013-01-19 22:27:00,
2013-01-19 15:33:00,67.6,25.1,30.35,SW,236,1.0,3.0,20,0.00,,,0.00,Wunderground v.1.15,2013-01-19 22:33:00,
2013-01-19 15:39:00,68.3,25.6,30.35,North,8,0.0,3.0,20,0.00,,,0.00,Wunderground v.1.15,2013-01-19 22:39:00,
2013-01-19 15:45:00,68.0,25.4,30.34,NE,49,1.0,3.0,20,0.00,,,0.00,Wunderground v.1.15,2013-01-19 22:45:00,
2013-01-19 15:52:00,67.9,25.3,30.34,NW,320,1.0,3.0,20,0.00,,,0.00,Wunderground v.1.15,2013-01-19 22:52:00,
2013-01-19 15:57:00,67.7,26.3,30.34,North,358,1.0,3.0,21,0.00,,,0.00,Wunderground v.1.15,2013-01-19 22:57:00,
2013-01-19 16:04:00,68.6,25.9,30.34,ENE,72,0.0,3.0,20,0.00,,,0.00,Wunderground v.1.15,2013-01-19 23:04:00,
2013-01-19 16:09:00,69.5,26.6,30.34,ENE,68,0.0,3.0,20,0.00,,,0.00,Wunderground v.1.15,2013-01-19 23:09:00,
2013-01-19 16:15:00,68.8,26.1,30.34,ENE,70,1.0,3.0,20,0.00,,,0.00,Wunderground v.1.15,2013-01-19 23:15:00,
2013-01-19 16:22:00,68.2,26.7,30.34,ENE,75,1.0,3.0,21,0.00,,,0.00,Wunderground v.1.15,2013-01-19 23:22:00,
2013-01-19 16:32:00,69.3,26.5,30.34,NNW,347,1.0,3.0,20,0.00,,,0.00,Wunderground v.1.15,2013-01-19 23:32:00,
2013-01-19 16:37:00,67.9,26.5,30.34,ENE,71,2.0,4.0,21,0.00,,,0.00,Wunderground v.1.15,2013-01-19 23:37:00,
2013-01-19 16:43:00,67.1,25.8,30.34,ENE,77,2.0,3.0,21,0.00,,,0.00,Wunderground v.1.15,2013-01-19 23:43:00,
2013-01-19 16:51:00,66.9,26.8,30.34,ENE,66,1.0,3.0,22,0.00,,,0.00,Wunderground v.1.15,2013-01-19 23:51:00,
2013-01-19 17:03:00,66.5,26.4,30.34,ENE,65,1.0,3.0,22,0.00,,,0.00,Wunderground v.1.15,2013-01-20 00:03:00,
2013-01-19 17:09:00,66.1,26.1,30.34,ENE,75,1.0,1.0,22,0.00,,,0.00,Wunderground v.1.15,2013-01-20 00:09:00,
2013-01-19 17:15:00,66.0,26.0,30.34,SE,142,0.0,3.0,22,0.00,,,0.00,Wunderground v.1.15,2013-01-20 00:15:00,
2013-01-19 17:22:00,65.5,26.7,30.35,SSE,165,0.0,3.0,23,0.00,,,0.00,Wunderground v.1.15,2013-01-20 00:22:00,
2013-01-19 17:27:00,63.0,27.5,30.35,WSW,238,1.0,3.0,26,0.00,,,0.00,Wunderground v.1.15,2013-01-20 00:27:00,
2013-01-19 17:33:00,60.5,27.2,30.35,SSW,200,1.0,3.0,28,0.00,,,0.00,Wunderground v.1.15,2013-01-20 00:33:00,
2013-01-19 17:39:00,58.5,27.1,30.35,SSW,212,2.0,2.0,30,0.00,,,0.00,Wunderground v.1.15,2013-01-20 00:39:00,
2013-01-19 17:45:00,57.3,26.9,30.35,South,188,2.0,3.0,31,0.00,,,0.00,Wunderground v.1.15,2013-01-20 00:45:00,
2013-01-19 17:51:00,56.3,26.8,30.35,WSW,244,1.0,3.0,32,0.00,,,0.00,Wunderground v.1.15,2013-01-20 00:51:00,
2013-01-19 17:58:00,55.5,26.8,30.35,SSW,211,1.0,3.0,33,0.00,,,0.00,Wunderground v.1.15,2013-01-20 00:58:00,
2013-01-19 18:03:00,54.5,26.7,30.35,SSW,203,2.0,3.0,34,0.00,,,0.00,Wunderground v.1.15,2013-01-20 01:03:00,
2013-01-19 18:09:00,53.2,26.9,30.35,South,187,1.0,3.0,36,0.00,,,0.00,Wunderground v.1.15,2013-01-20 01:09:00,
2013-01-19 18:15:00,52.1,26.6,30.36,SSW,203,1.0,3.0,37,0.00,,,0.00,Wunderground v.1.15,2013-01-20 01:15:00,
2013-01-19 18:21:00,51.4,26.6,30.36,SSW,208,1.0,3.0,38,0.00,,,0.00,Wunderground v.1.15,2013-01-20 01:21:00,
2013-01-19 18:27:00,50.9,26.8,30.36,SSW,193,1.0,3.0,39,0.00,,,0.00,Wunderground v.1.15,2013-01-20 01:27:00,
2013-01-19 18:34:00,50.7,26.6,30.36,South,191,1.0,3.0,39,0.00,,,0.00,Wunderground v.1.15,2013-01-20 01:34:00,
2013-01-19 18:39:00,50.8,26.7,30.37,SW,233,1.0,1.0,39,0.00,,,0.00,Wunderground v.1.15,2013-01-20 01:39:00,
2013-01-19 18:46:00,50.5,25.8,30.37,SSW,200,1.0,3.0,38,0.00,,,0.00,Wunderground v.1.15,2013-01-20 01:46:00,
2013-01-19 18:52:00,50.3,26.3,30.37,SSW,201,1.0,2.0,39,0.00,,,0.00,Wunderground v.1.15,2013-01-20 01:52:00,
2013-01-19 18:58:00,50.1,26.1,30.37,SSW,203,1.0,3.0,39,0.00,,,0.00,Wunderground v.1.15,2013-01-20 01:58:00,
2013-01-19 19:03:00,49.7,25.7,30.38,WSW,238,1.0,3.0,39,0.00,,,0.00,Wunderground v.1.15,2013-01-20 02:03:00,
2013-01-19 19:10:00,49.3,26.0,30.38,SSW,201,1.0,3.0,40,0.00,,,0.00,Wunderground v.1.15,2013-01-20 02:10:00,
2013-01-19 19:15:00,49.2,25.9,30.38,SW,235,1.0,3.0,40,0.00,,,0.00,Wunderground v.1.15,2013-01-20 02:15:00,
2013-01-19 19:24:00,49.6,25.6,30.38,SE,145,1.0,3.0,39,0.00,,,0.00,Wunderground v.1.15,2013-01-20 02:24:00,
2013-01-19 19:30:00,50.0,25.4,30.38,NW,309,1.0,1.0,38,0.00,,,0.00,Wunderground v.1.15,2013-01-20 02:30:00,
2013-01-19 19:35:00,49.9,25.9,30.39,WSW,248,1.0,3.0,39,0.00,,,0.00,Wunderground v.1.15,2013-01-20 02:35:00,
2013-01-19 19:41:00,51.0,25.6,30.39,WSW,242,0.0,3.0,37,0.00,,,0.00,Wunderground v.1.15,2013-01-20 02:41:00,
2013-01-19 19:47:00,50.9,25.5,30.39,WSW,249,0.0,3.0,37,0.00,,,0.00,Wunderground v.1.15,2013-01-20 02:47:00,
2013-01-19 19:54:00,50.0,25.4,30.39,SSW,207,1.0,3.0,38,0.00,,,0.00,Wunderground v.1.15,2013-01-20 02:54:00,
2013-01-19 20:00:00,49.9,25.3,30.39,West,266,1.0,3.0,38,0.00,,,0.00,Wunderground v.1.15,2013-01-20 03:00:00,
2013-01-19 20:06:00,49.3,25.4,30.39,SW,219,1.0,3.0,39,0.00,,,0.00,Wunderground v.1.15,2013-01-20 03:06:00,
2013-01-19 20:11:00,47.7,25.1,30.40,SW,235,1.0,3.0,41,0.00,,,0.00,Wunderground v.1.15,2013-01-20 03:11:00,
2013-01-19 20:18:00,46.6,24.7,30.40,SW,218,1.0,3.0,42,0.00,,,0.00,Wunderground v.1.15,2013-01-20 03:18:00,
2013-01-19 20:24:00,45.9,24.6,30.40,SSW,201,2.0,3.0,43,0.00,,,0.00,Wunderground v.1.15,2013-01-20 03:24:00,
2013-01-19 20:30:00,45.3,24.6,30.40,SW,221,2.0,2.0,44,0.00,,,0.00,Wunderground v.1.15,2013-01-20 03:30:00,
2013-01-19 20:36:00,45.3,24.6,30.41,SSE,153,2.0,3.0,44,0.00,,,0.00,Wunderground v.1.15,2013-01-20 03:36:00,
2013-01-19 20:41:00,44.9,24.8,30.41,SSW,212,2.0,3.0,45,0.00,,,0.00,Wunderground v.1.15,2013-01-20 03:41:00,
2013-01-19 20:47:00,44.6,25.1,30.41,SSW,204,3.0,3.0,46,0.00,,,0.00,Wunderground v.1.15,2013-01-20 03:47:00,
2013-01-19 20:54:00,44.9,25.3,30.41,SSW,201,3.0,3.0,46,0.00,,,0.00,Wunderground v.1.15,2013-01-20 03:54:00,
2013-01-19 20:59:00,45.7,25.5,30.41,SSW,201,3.0,3.0,45,0.00,,,0.00,Wunderground v.1.15,2013-01-20 03:59:00,
2013-01-19 21:06:00,46.3,25.6,30.41,SW,232,2.0,4.0,44,0.00,,,0.00,Wunderground v.1.15,2013-01-20 04:06:00,
2013-01-19 21:11:00,46.3,25.0,30.41,SW,217,2.0,3.0,43,0.00,,,0.00,Wunderground v.1.15,2013-01-20 04:11:00,
2013-01-19 21:17:00,46.0,25.3,30.41,SSW,194,1.0,3.0,44,0.00,,,0.00,Wunderground v.1.15,2013-01-20 04:17:00,
2013-01-19 21:24:00,45.6,24.9,30.41,SSW,198,1.0,3.0,44,0.00,,,0.00,Wunderground v.1.15,2013-01-20 04:24:00,
2013-01-19 21:29:00,45.1,25.0,30.41,SW,214,1.0,3.0,45,0.00,,,0.00,Wunderground v.1.15,2013-01-20 04:29:00,
2013-01-19 21:35:00,44.6,25.1,30.41,SSW,212,1.0,3.0,46,0.00,,,0.00,Wunderground v.1.15,2013-01-20 04:35:00,
2013-01-19 21:41:00,43.7,24.8,30.41,SSW,207,1.0,3.0,47,0.00,,,0.00,Wunderground v.1.15,2013-01-20 04:41:00,
2013-01-19 21:48:00,43.5,25.1,30.42,SSW,208,2.0,5.0,48,0.00,,,0.00,Wunderground v.1.15,2013-01-20 04:48:00,
2013-01-19 21:54:00,42.9,25.0,30.42,SW,217,2.0,3.0,49,0.00,,,0.00,Wunderground v.1.15,2013-01-20 04:54:00,
2013-01-19 21:59:00,43.3,24.9,30.42,SSW,204,1.0,3.0,48,0.00,,,0.00,Wunderground v.1.15,2013-01-20 04:59:00,
2013-01-19 22:01:00,43.3,24.9,30.42,SSW,195,1.0,3.0,48,0.00,,,0.00,Wunderground v.1.15,2013-01-20 05:01:00,
2013-01-19 22:03:00,43.2,24.8,30.42,SSW,207,1.0,3.0,48,0.00,,,0.00,Wunderground v.1.15,2013-01-20 05:03:00,
2013-01-19 22:08:00,43.0,25.1,30.42,SSW,203,2.0,3.0,49,0.00,,,0.00,Wunderground v.1.15,2013-01-20 05:08:00,
2013-01-19 22:10:00,42.8,24.9,30.42,SSW,210,2.0,3.0,49,0.00,,,0.00,Wunderground v.1.15,2013-01-20 05:10:00,
2013-01-19 22:15:00,42.5,25.1,30.42,WSW,249,2.0,3.0,50,0.00,,,0.00,Wunderground v.1.15,2013-01-20 05:15:00,
2013-01-19 22:22:00,42.8,24.9,30.42,SSW,211,2.0,4.0,49,0.00,,,0.00,Wunderground v.1.15,2013-01-20 05:22:00,
2013-01-19 22:27:00,42.6,24.8,30.42,SSW,212,2.0,4.0,49,0.00,,,0.00,Wunderground v.1.15,2013-01-20 05:27:00,
2013-01-19 22:33:00,42.0,25.2,30.42,SSW,192,3.0,4.0,51,0.00,,,0.00,Wunderground v.1.15,2013-01-20 05:33:00,
2013-01-19 22:39:00,42.2,25.3,30.42,SSW,197,2.0,4.0,51,0.00,,,0.00,Wunderground v.1.15,2013-01-20 05:39:00,
2013-01-19 22:46:00,42.3,25.4,30.42,SSW,201,2.0,4.0,51,0.00,,,0.00,Wunderground v.1.15,2013-01-20 05:46:00,
2013-01-19 22:51:00,42.0,25.2,30.42,SSW,208,2.0,4.0,51,0.00,,,0.00,Wunderground v.1.15,2013-01-20 05:51:00,
2013-01-19 22:57:00,42.1,25.3,30.41,SW,233,3.0,4.0,51,0.00,,,0.00,Wunderground v.1.15,2013-01-20 05:57:00,
2013-01-19 23:04:00,42.3,25.4,30.41,SSE,159,2.0,3.0,51,0.00,,,0.00,Wunderground v.1.15,2013-01-20 06:04:00,
2013-01-19 23:09:00,41.9,25.1,30.41,WSW,237,3.0,5.0,51,0.00,,,0.00,Wunderground v.1.15,2013-01-20 06:09:00,
2013-01-19 23:15:00,41.9,25.5,30.41,SW,232,3.0,5.0,52,0.00,,,0.00,Wunderground v.1.15,2013-01-20 06:15:00,
2013-01-19 23:22:00,42.2,25.8,30.41,South,176,2.0,3.0,52,0.00,,,0.00,Wunderground v.1.15,2013-01-20 06:22:00,
2013-01-19 23:27:00,42.4,25.5,30.41,SSW,201,2.0,3.0,51,0.00,,,0.00,Wunderground v.1.15,2013-01-20 06:27:00,
2013-01-19 23:34:00,42.4,25.5,30.41,WSW,239,2.0,6.0,51,0.00,,,0.00,Wunderground v.1.15,2013-01-20 06:34:00,
2013-01-19 23:39:00,42.4,25.5,30.41,West,280,3.0,3.0,51,0.00,,,0.00,Wunderground v.1.15,2013-01-20 06:39:00,
2013-01-19 23:45:00,42.3,25.9,30.41,South,184,3.0,4.0,52,0.00,,,0.00,Wunderground v.1.15,2013-01-20 06:45:00,
2013-01-19 23:51:00,42.1,25.7,30.41,SSW,205,2.0,3.0,52,0.00,,,0.00,Wunderground v.1.15,2013-01-20 06:51:00,
2013-01-19 23:57:00,41.5,25.6,30.41,SW,215,3.0,3.0,53,0.00,,,0.00,Wunderground v.1.15,2013-01-20 06:57:00,